createdAt,value
2018-10-12T00:00:17.306Z,100.00
2018-10-12T00:02:46.327Z,100.00
2018-10-12T00:05:15.268Z,100.00
2018-10-12T00:07:44.206Z,100.00
2018-10-12T00:10:13.163Z,100.00
2018-10-12T00:12:42.433Z,100.00
2018-10-12T00:15:11.574Z,100.00
2018-10-12T00:17:40.513Z,100.00
2018-10-12T00:20:09.961Z,100.00
2018-10-12T00:22:38.939Z,100.00
2018-10-12T00:25:08.213Z,100.00
2018-10-12T00:27:37.163Z,100.00
2018-10-12T00:30:06.082Z,100.00
2018-10-12T00:32:35.025Z,100.00
2018-10-12T00:35:04.111Z,100.00
2018-10-12T00:37:33.110Z,100.00
2018-10-12T00:40:02.047Z,100.00
2018-10-12T00:42:30.988Z,100.00
2018-10-12T00:44:59.944Z,100.00
2018-10-12T00:47:28.882Z,100.00
2018-10-12T00:49:57.831Z,100.00
2018-10-12T00:52:26.772Z,100.00
2018-10-12T00:54:55.791Z,100.00
2018-10-12T00:57:24.779Z,100.00
2018-10-12T00:59:53.789Z,100.00
2018-10-12T01:02:22.790Z,100.00
2018-10-12T01:04:51.751Z,100.00
2018-10-12T01:07:20.708Z,100.00
2018-10-12T01:09:49.669Z,100.00
2018-10-12T01:12:32.699Z,100.00
2018-10-12T01:15:02.123Z,100.00
2018-10-12T01:17:31.451Z,100.00
2018-10-12T01:20:00.410Z,100.00
2018-10-12T01:22:30.153Z,100.00
2018-10-12T01:25:00.356Z,100.00
2018-10-12T01:27:29.494Z,100.00
2018-10-12T01:29:58.515Z,100.00
2018-10-12T01:32:32.626Z,100.00
2018-10-12T01:35:01.652Z,100.00
2018-10-12T01:37:30.610Z,100.00
2018-10-12T01:39:59.538Z,100.00
2018-10-12T01:42:28.541Z,100.00
2018-10-12T01:44:57.807Z,100.00
2018-10-12T01:47:26.763Z,100.00
2018-10-12T01:49:55.743Z,100.00
2018-10-12T01:52:24.753Z,100.00
2018-10-12T01:54:53.702Z,100.00
2018-10-12T01:57:22.658Z,100.00
2018-10-12T01:59:51.618Z,100.00
2018-10-12T02:02:20.594Z,100.00
2018-10-12T02:04:49.545Z,100.00
2018-10-12T02:07:18.514Z,100.00
2018-10-12T02:09:47.563Z,100.00
2018-10-12T02:12:16.515Z,100.00
2018-10-12T02:14:45.486Z,100.00
2018-10-12T02:17:14.445Z,100.00
2018-10-12T02:19:43.408Z,100.00
2018-10-12T02:22:12.373Z,100.00
2018-10-12T02:24:41.307Z,100.00
2018-10-12T02:27:10.334Z,100.00
2018-10-12T02:29:39.258Z,100.00
2018-10-12T02:32:08.210Z,100.00
2018-10-12T02:34:37.165Z,100.00
2018-10-12T02:37:06.186Z,100.00
2018-10-12T02:39:35.167Z,100.00
2018-10-12T02:42:04.127Z,100.00
2018-10-12T02:44:33.118Z,100.00
2018-10-12T02:47:02.098Z,100.00
2018-10-12T02:49:31.026Z,100.00
2018-10-12T02:51:59.973Z,100.00
2018-10-12T02:54:28.926Z,100.00
2018-10-12T02:56:57.873Z,100.00
2018-10-12T02:59:26.818Z,100.00
2018-10-12T03:01:55.829Z,100.00
2018-10-12T03:04:24.762Z,100.00
2018-10-12T03:06:53.711Z,100.00
2018-10-12T03:09:22.697Z,100.00
2018-10-12T03:11:51.666Z,100.00
2018-10-12T03:14:20.668Z,100.00
2018-10-12T03:16:49.613Z,100.00
2018-10-12T03:19:18.691Z,100.00
2018-10-12T03:21:47.631Z,100.00
2018-10-12T03:24:16.573Z,100.00
2018-10-12T03:26:45.570Z,100.00
2018-10-12T03:29:14.511Z,100.00
2018-10-12T03:31:43.474Z,100.00
2018-10-12T03:34:12.418Z,100.00
2018-10-12T03:36:41.476Z,100.00
2018-10-12T03:39:10.423Z,100.00
2018-10-12T03:41:39.385Z,100.00
2018-10-12T03:44:08.353Z,100.00
2018-10-12T03:46:37.295Z,100.00
2018-10-12T03:49:06.254Z,100.00
2018-10-12T03:51:35.215Z,100.00
2018-10-12T03:54:04.230Z,100.00
2018-10-12T03:56:33.162Z,100.00
2018-10-12T03:59:02.116Z,100.00
2018-10-12T04:01:31.084Z,100.00
2018-10-12T04:04:00.029Z,100.00
2018-10-12T04:06:29.210Z,100.00
2018-10-12T04:08:58.235Z,100.00
2018-10-12T04:11:27.175Z,100.00
2018-10-12T04:13:56.130Z,100.00
2018-10-12T04:16:25.126Z,100.00
2018-10-12T04:18:54.171Z,100.00
2018-10-12T04:21:23.212Z,100.00
2018-10-12T04:23:52.140Z,100.00
2018-10-12T04:26:21.103Z,100.00
2018-10-12T04:28:50.056Z,100.00
2018-10-12T04:31:19.033Z,100.00
2018-10-12T04:33:47.960Z,100.00
2018-10-12T04:36:16.902Z,100.00
2018-10-12T04:38:56.811Z,100.00
2018-10-12T04:41:25.758Z,100.00
2018-10-12T04:43:56.078Z,100.00
2018-10-12T04:46:31.607Z,100.00
2018-10-12T04:49:01.438Z,100.00
2018-10-12T04:51:38.089Z,100.00
2018-10-12T04:54:07.540Z,100.00
2018-10-12T04:56:36.462Z,100.00
2018-10-12T04:59:05.394Z,100.00
2018-10-12T05:01:34.345Z,100.00
2018-10-12T05:04:03.311Z,100.00
2018-10-12T05:06:32.551Z,100.00
2018-10-12T05:09:01.518Z,100.00
2018-10-12T05:11:30.473Z,100.00
2018-10-12T05:13:59.402Z,100.00
2018-10-12T05:16:28.358Z,100.00
2018-10-12T05:18:57.272Z,100.00
2018-10-12T05:21:26.378Z,100.00
2018-10-12T05:23:55.360Z,100.00
2018-10-12T05:26:24.288Z,100.00
2018-10-12T05:28:53.286Z,100.00
2018-10-12T05:31:22.350Z,100.00
2018-10-12T05:33:51.308Z,100.00
2018-10-12T05:36:20.247Z,100.00
2018-10-12T05:38:49.246Z,100.00
2018-10-12T05:41:18.185Z,100.00
2018-10-12T05:43:47.193Z,100.00
2018-10-12T05:46:16.090Z,100.00
2018-10-12T05:48:56.096Z,100.00
2018-10-12T05:51:25.047Z,100.00
2018-10-12T05:53:53.977Z,100.00
2018-10-12T05:56:24.886Z,100.00
2018-10-12T05:58:54.047Z,100.00
2018-10-12T06:01:23.124Z,100.00
2018-10-12T06:03:52.013Z,100.00
2018-10-12T06:06:24.840Z,100.00
2018-10-12T06:08:53.826Z,100.00
2018-10-12T06:11:22.894Z,100.00
2018-10-12T06:13:51.841Z,100.00
2018-10-12T06:16:20.846Z,100.00
2018-10-12T06:18:49.810Z,100.00
2018-10-12T06:21:18.746Z,100.00
2018-10-12T06:23:47.737Z,100.00
2018-10-12T06:26:16.762Z,100.00
2018-10-12T06:28:45.678Z,100.00
2018-10-12T06:31:14.637Z,100.00
2018-10-12T06:33:43.563Z,100.00
2018-10-12T06:36:12.537Z,100.00
2018-10-12T06:38:41.482Z,100.00
2018-10-12T06:41:10.540Z,100.00
2018-10-12T06:43:39.436Z,100.00
2018-10-12T06:46:08.365Z,100.00
2018-10-12T06:48:37.362Z,100.00
2018-10-12T06:51:06.330Z,100.00
2018-10-12T06:53:35.270Z,100.00
2018-10-12T06:56:04.193Z,100.00
2018-10-12T06:58:33.185Z,100.00
2018-10-12T07:01:02.120Z,100.00
2018-10-12T07:03:31.065Z,100.00
2018-10-12T07:06:00.034Z,100.00
2018-10-12T07:08:28.954Z,100.00
2018-10-12T07:10:57.885Z,100.00
2018-10-12T07:13:26.794Z,100.00
2018-10-12T07:15:55.853Z,100.00
2018-10-12T07:18:24.837Z,100.00
2018-10-12T07:20:53.774Z,100.00
2018-10-12T07:23:22.719Z,100.00
2018-10-12T07:25:51.753Z,100.00
2018-10-12T07:28:20.707Z,100.00
2018-10-12T07:30:49.643Z,100.00
2018-10-12T07:33:18.644Z,100.00
2018-10-12T07:35:47.629Z,100.00
2018-10-12T07:38:16.990Z,100.00
2018-10-12T07:40:45.583Z,100.00
2018-10-12T07:43:14.511Z,100.00
2018-10-12T07:45:43.482Z,100.00
2018-10-12T07:48:12.487Z,100.00
2018-10-12T07:50:41.498Z,100.00
2018-10-12T07:53:10.459Z,100.00
2018-10-12T07:55:39.389Z,99.12
2018-10-12T07:58:08.379Z,99.15
2018-10-12T08:00:37.319Z,97.85
2018-10-12T08:03:06.279Z,98.48
2018-10-12T08:05:35.208Z,97.74
2018-10-12T08:08:04.188Z,97.35
2018-10-12T08:10:33.138Z,97.05
2018-10-12T08:13:02.082Z,95.70
2018-10-12T08:15:31.135Z,96.29
2018-10-12T08:18:00.090Z,95.49
2018-10-12T08:20:29.075Z,94.29
2018-10-12T08:22:58.007Z,92.51
2018-10-12T08:25:27.024Z,90.07
2018-10-12T08:27:55.977Z,90.42
2018-10-12T08:30:24.976Z,88.21
2018-10-12T08:32:53.958Z,88.74
2018-10-12T08:35:22.929Z,86.98
2018-10-12T08:37:51.876Z,87.18
2018-10-12T08:40:20.923Z,87.38
2018-10-12T08:42:49.973Z,85.59
2018-10-12T08:45:18.906Z,86.71
2018-10-12T08:47:47.834Z,85.64
2018-10-12T08:50:16.795Z,87.00
2018-10-12T08:52:45.718Z,83.02
2018-10-12T08:55:14.785Z,82.86
2018-10-12T08:57:43.729Z,82.68
2018-10-12T09:00:12.974Z,80.31
2018-10-12T09:02:41.905Z,80.93
2018-10-12T09:05:10.918Z,80.96
2018-10-12T09:07:39.865Z,80.17
2018-10-12T09:10:09.056Z,79.51
2018-10-12T09:12:38.535Z,78.31
2018-10-12T09:15:07.798Z,79.20
2018-10-12T09:17:37.438Z,77.59
2018-10-12T09:20:06.739Z,77.06
2018-10-12T09:22:35.677Z,76.10
2018-10-12T09:25:04.595Z,76.05
2018-10-12T09:27:33.605Z,75.12
2018-10-12T09:30:02.531Z,74.95
2018-10-12T09:32:31.456Z,75.03
2018-10-12T09:35:00.382Z,73.05
2018-10-12T09:37:29.298Z,74.76
2018-10-12T09:39:58.261Z,73.06
2018-10-12T09:42:27.183Z,71.98
2018-10-12T09:44:56.169Z,73.61
2018-10-12T09:47:25.224Z,73.62
2018-10-12T09:49:54.176Z,77.30
2018-10-12T09:52:23.121Z,75.85
2018-10-12T09:54:52.066Z,75.37
2018-10-12T09:57:25.088Z,71.55
2018-10-12T09:59:54.165Z,71.92
2018-10-12T10:02:27.194Z,70.41
2018-10-12T10:05:00.214Z,71.63
2018-10-12T10:07:29.263Z,68.50
2018-10-12T10:09:58.189Z,66.41
2018-10-12T10:12:27.113Z,66.08
2018-10-12T10:14:56.085Z,63.03
2018-10-12T10:17:25.035Z,61.12
2018-10-12T10:19:54.009Z,59.51
2018-10-12T10:22:23.027Z,60.13
2018-10-12T10:24:52.007Z,62.26
2018-10-12T10:27:20.950Z,60.84
2018-10-12T10:29:50.102Z,59.60
2018-10-12T10:32:18.924Z,60.18
2018-10-12T10:34:47.850Z,58.33
2018-10-12T10:37:16.810Z,58.19
2018-10-12T10:39:45.775Z,57.65
2018-10-12T10:42:14.806Z,56.52
2018-10-12T10:44:43.758Z,56.85
2018-10-12T10:47:12.834Z,51.26
2018-10-12T10:49:41.779Z,49.82
2018-10-12T10:52:10.759Z,47.98
2018-10-12T10:54:39.710Z,47.57
2018-10-12T10:57:08.645Z,47.42
2018-10-12T10:59:37.745Z,46.17
2018-10-12T11:02:06.673Z,46.99
2018-10-12T11:04:35.667Z,46.81
2018-10-12T11:07:04.698Z,47.14
2018-10-12T11:09:33.743Z,48.02
2018-10-12T11:12:02.732Z,49.34
2018-10-12T11:14:31.695Z,49.57
2018-10-12T11:17:00.683Z,50.26
2018-10-12T11:19:29.713Z,50.97
2018-10-12T11:21:58.670Z,50.80
2018-10-12T11:24:27.724Z,52.59
2018-10-12T11:26:56.753Z,53.01
2018-10-12T11:29:25.638Z,53.26
2018-10-12T11:31:54.575Z,52.33
2018-10-12T11:34:23.679Z,54.13
2018-10-12T11:36:52.631Z,53.31
2018-10-12T11:39:21.576Z,54.44
2018-10-12T11:41:50.550Z,54.62
2018-10-12T11:44:19.495Z,55.23
2018-10-12T11:46:48.462Z,54.39
2018-10-12T11:49:17.471Z,55.37
2018-10-12T11:51:46.451Z,55.19
2018-10-12T11:54:15.408Z,56.29
2018-10-12T11:56:44.423Z,56.35
2018-10-12T11:59:13.385Z,56.76
2018-10-12T12:01:42.338Z,55.21
2018-10-12T12:04:11.320Z,57.89
2018-10-12T12:06:40.294Z,56.46
2018-10-12T12:09:09.242Z,57.45
2018-10-12T12:11:38.218Z,56.90
2018-10-12T12:14:07.270Z,56.17
2018-10-12T12:16:36.246Z,55.85
2018-10-12T12:19:05.186Z,56.55
2018-10-12T12:21:34.202Z,55.30
2018-10-12T12:24:03.150Z,56.11
2018-10-12T12:26:32.158Z,55.62
2018-10-12T12:29:01.095Z,55.15
2018-10-12T12:31:30.130Z,55.37
2018-10-12T12:33:59.081Z,54.93
2018-10-12T12:36:28.211Z,54.88
2018-10-12T12:38:57.181Z,55.17
2018-10-12T12:41:26.117Z,55.47
2018-10-12T12:43:55.093Z,56.96
2018-10-12T12:46:24.035Z,57.29
2018-10-12T12:48:53.490Z,55.87
2018-10-12T12:51:21.985Z,58.08
2018-10-12T12:53:51.071Z,54.82
2018-10-12T12:56:20.042Z,56.40
2018-10-12T12:58:49.005Z,55.83
2018-10-12T13:01:17.958Z,56.28
2018-10-12T13:03:46.922Z,55.04
2018-10-12T13:06:15.888Z,55.41
2018-10-12T13:08:44.834Z,54.89
2018-10-12T13:11:13.866Z,56.65
2018-10-12T13:13:42.859Z,56.78
2018-10-12T13:16:11.780Z,53.42
2018-10-12T13:18:40.744Z,54.79
2018-10-12T13:21:09.722Z,54.15
2018-10-12T13:23:38.701Z,53.62
2018-10-12T13:26:07.876Z,53.64
2018-10-12T13:28:36.907Z,56.03
2018-10-12T13:31:05.839Z,54.20
2018-10-12T13:33:34.817Z,54.06
2018-10-12T13:36:03.787Z,55.41
2018-10-12T13:38:32.727Z,54.69
2018-10-12T13:41:01.688Z,56.56
2018-10-12T13:43:30.627Z,56.80
2018-10-12T13:45:59.679Z,55.21
2018-10-12T13:48:28.647Z,56.67
2018-10-12T13:50:57.633Z,57.35
2018-10-12T13:53:26.613Z,57.27
2018-10-12T13:55:55.546Z,56.97
2018-10-12T13:58:24.524Z,57.78
2018-10-12T14:00:53.466Z,57.15
2018-10-12T14:03:22.411Z,55.50
2018-10-12T14:05:51.454Z,55.50
2018-10-12T14:08:20.514Z,57.31
2018-10-12T14:10:49.469Z,56.98
2018-10-12T14:13:18.401Z,56.87
2018-10-12T14:15:47.362Z,59.30
2018-10-12T14:18:16.348Z,59.03
2018-10-12T14:20:45.394Z,58.73
2018-10-12T14:23:14.339Z,58.73
2018-10-12T14:25:43.339Z,59.32
2018-10-12T14:28:12.275Z,59.80
2018-10-12T14:30:41.215Z,60.79
2018-10-12T14:33:10.166Z,61.25
2018-10-12T14:35:39.146Z,61.55
2018-10-12T14:38:08.088Z,62.92
2018-10-12T14:40:37.024Z,64.12
2018-10-12T14:43:06.072Z,63.39
2018-10-12T14:45:35.030Z,63.25
2018-10-12T14:48:03.971Z,63.62
2018-10-12T14:50:32.927Z,62.54
2018-10-12T14:53:01.947Z,63.26
2018-10-12T14:55:30.875Z,63.53
2018-10-12T14:57:59.807Z,64.57
2018-10-12T15:00:28.777Z,62.78
2018-10-12T15:02:57.712Z,64.23
2018-10-12T15:05:26.755Z,64.21
2018-10-12T15:07:55.657Z,66.40
2018-10-12T15:10:24.591Z,66.21
2018-10-12T15:12:53.539Z,65.94
2018-10-12T15:15:24.630Z,66.89
2018-10-12T15:17:54.767Z,67.46
2018-10-12T15:20:24.074Z,67.62
2018-10-12T15:22:53.066Z,69.05
2018-10-12T15:25:22.032Z,69.72
2018-10-12T15:27:51.001Z,71.09
2018-10-12T15:30:20.302Z,69.68
2018-10-12T15:32:49.229Z,69.39
2018-10-12T15:35:18.169Z,69.97
2018-10-12T15:37:47.196Z,70.36
2018-10-12T15:40:16.123Z,70.32
2018-10-12T15:42:45.081Z,70.13
2018-10-12T15:45:14.032Z,69.68
2018-10-12T15:47:42.984Z,70.36
2018-10-12T15:50:11.915Z,69.92
2018-10-12T15:52:40.863Z,71.15
2018-10-12T15:55:09.794Z,70.43
2018-10-12T15:57:38.794Z,70.43
2018-10-12T16:00:07.718Z,70.49
2018-10-12T16:02:36.659Z,70.32
2018-10-12T16:05:05.598Z,71.79
2018-10-12T16:07:34.547Z,72.61
2018-10-12T16:10:03.478Z,72.37
2018-10-12T16:12:32.398Z,74.46
2018-10-12T16:15:01.402Z,74.76
2018-10-12T16:17:30.327Z,73.83
2018-10-12T16:19:59.275Z,73.60
2018-10-12T16:22:28.293Z,74.48
2018-10-12T16:25:08.053Z,73.82
2018-10-12T16:27:37.042Z,74.44
2018-10-12T16:30:06.026Z,73.35
2018-10-12T16:32:35.026Z,72.96
2018-10-12T16:35:03.978Z,72.94
2018-10-12T16:37:32.911Z,72.48
2018-10-12T16:40:01.850Z,71.27
2018-10-12T16:42:30.854Z,71.82
2018-10-12T16:44:59.893Z,70.04
2018-10-12T16:47:28.864Z,70.40
2018-10-12T16:49:57.854Z,70.11
2018-10-12T16:52:26.787Z,70.13
2018-10-12T16:54:55.727Z,70.46
2018-10-12T16:57:26.585Z,72.23
2018-10-12T16:59:55.536Z,72.30
2018-10-12T17:02:24.553Z,71.42
2018-10-12T17:04:53.583Z,72.37
2018-10-12T17:07:22.719Z,74.48
2018-10-12T17:09:51.727Z,74.83
2018-10-12T17:12:20.690Z,76.54
2018-10-12T17:14:49.760Z,77.78
2018-10-12T17:17:18.792Z,78.31
2018-10-12T17:19:47.754Z,78.77
2018-10-12T17:22:16.682Z,78.88
2018-10-12T17:24:45.806Z,79.77
2018-10-12T17:27:14.759Z,79.20
2018-10-12T17:29:43.803Z,79.80
2018-10-12T17:32:12.873Z,82.96
2018-10-12T17:34:41.820Z,85.60
2018-10-12T17:37:10.784Z,90.18
2018-10-12T17:39:39.710Z,91.27
2018-10-12T17:42:15.927Z,92.46
2018-10-12T17:44:45.223Z,93.71
2018-10-12T17:47:14.875Z,94.90
2018-10-12T17:49:44.194Z,95.62
2018-10-12T17:52:13.234Z,98.94
2018-10-12T17:54:42.241Z,99.90
2018-10-12T17:57:11.174Z,100.00
2018-10-12T17:59:40.197Z,100.00
2018-10-12T18:02:09.236Z,100.00
2018-10-12T18:04:38.349Z,100.00
2018-10-12T18:07:07.395Z,100.00
2018-10-12T18:09:36.329Z,100.00
2018-10-12T18:12:05.280Z,100.00
2018-10-12T18:14:34.215Z,100.00
2018-10-12T18:17:03.239Z,100.00
2018-10-12T18:19:32.164Z,100.00
2018-10-12T18:22:01.110Z,100.00
2018-10-12T18:24:30.073Z,100.00
2018-10-12T18:26:59.201Z,100.00
2018-10-12T18:29:28.328Z,100.00
2018-10-12T18:31:57.289Z,100.00
2018-10-12T18:34:26.367Z,100.00
2018-10-12T18:36:55.396Z,100.00
2018-10-12T18:39:24.403Z,100.00
2018-10-12T18:41:53.354Z,100.00
2018-10-12T18:44:22.332Z,100.00
2018-10-12T18:46:51.274Z,100.00
2018-10-12T18:49:20.198Z,100.00
2018-10-12T18:51:49.271Z,100.00
2018-10-12T18:54:18.246Z,100.00
2018-10-12T18:56:47.210Z,100.00
2018-10-12T18:59:16.249Z,100.00
2018-10-12T19:01:45.230Z,100.00
2018-10-12T19:04:14.356Z,100.00
2018-10-12T19:06:43.388Z,100.00
2018-10-12T19:09:12.321Z,100.00
2018-10-12T19:11:41.750Z,100.00
2018-10-12T19:14:10.759Z,100.00
2018-10-12T19:16:39.846Z,100.00
2018-10-12T19:19:09.000Z,100.00
2018-10-12T19:21:38.042Z,100.00
2018-10-12T19:24:07.156Z,100.00
2018-10-12T19:26:36.091Z,100.00
2018-10-12T19:29:05.042Z,100.00
2018-10-12T19:31:34.097Z,100.00
2018-10-12T19:34:03.110Z,100.00
2018-10-12T19:36:32.057Z,100.00
2018-10-12T19:39:01.021Z,100.00
2018-10-12T19:41:29.988Z,100.00
2018-10-12T19:43:58.945Z,100.00
2018-10-12T19:46:27.882Z,100.00
2018-10-12T19:48:56.825Z,100.00
2018-10-12T19:51:25.848Z,100.00
2018-10-12T19:53:54.774Z,100.00
2018-10-12T19:56:23.791Z,100.00
2018-10-12T19:58:52.755Z,100.00
2018-10-12T20:01:21.686Z,100.00
2018-10-12T20:03:50.630Z,100.00
2018-10-12T20:06:19.600Z,100.00
2018-10-12T20:08:48.593Z,100.00
2018-10-12T20:11:17.523Z,100.00
2018-10-12T20:13:46.480Z,100.00
2018-10-12T20:16:15.456Z,100.00
2018-10-12T20:18:44.428Z,100.00
2018-10-12T20:21:13.370Z,100.00
2018-10-12T20:23:42.313Z,100.00
2018-10-12T20:26:11.323Z,100.00
2018-10-12T20:28:40.238Z,100.00
2018-10-12T20:31:09.324Z,100.00
2018-10-12T20:33:38.271Z,100.00
2018-10-12T20:36:07.246Z,100.00
2018-10-12T20:38:36.439Z,100.00
2018-10-12T20:41:05.631Z,100.00
2018-10-12T20:43:34.622Z,100.00
2018-10-12T20:46:03.596Z,100.00
2018-10-12T20:48:32.518Z,100.00
2018-10-12T20:51:01.468Z,100.00
2018-10-12T20:53:30.450Z,100.00
2018-10-12T20:55:59.407Z,100.00
2018-10-12T20:58:28.347Z,100.00
2018-10-12T21:00:57.351Z,100.00
2018-10-12T21:03:26.283Z,100.00
2018-10-12T21:05:55.216Z,100.00
2018-10-12T21:08:24.181Z,100.00
2018-10-12T21:10:53.112Z,100.00
2018-10-12T21:13:22.069Z,100.00
2018-10-12T21:15:51.019Z,100.00
2018-10-12T21:18:20.024Z,100.00
2018-10-12T21:20:48.955Z,100.00
2018-10-12T21:23:17.884Z,100.00
2018-10-12T21:25:46.832Z,100.00
2018-10-12T21:28:15.838Z,100.00
2018-10-12T21:30:44.754Z,100.00
2018-10-12T21:33:13.687Z,100.00
2018-10-12T21:35:42.678Z,100.00
2018-10-12T21:38:11.593Z,100.00
2018-10-12T21:40:40.548Z,100.00
2018-10-12T21:43:09.499Z,100.00
2018-10-12T21:45:38.429Z,100.00
2018-10-12T21:48:07.410Z,100.00
2018-10-12T21:50:36.385Z,100.00
2018-10-12T21:53:05.351Z,100.00
2018-10-12T21:55:34.292Z,100.00
2018-10-12T21:58:03.694Z,100.00
2018-10-12T22:00:32.827Z,100.00
2018-10-12T22:03:01.793Z,100.00
2018-10-12T22:05:30.766Z,100.00
2018-10-12T22:07:59.690Z,100.00
2018-10-12T22:10:28.684Z,100.00
2018-10-12T22:12:57.624Z,100.00
2018-10-12T22:15:26.571Z,100.00
2018-10-12T22:17:55.516Z,100.00
2018-10-12T22:20:24.446Z,100.00
2018-10-12T22:22:54.281Z,100.00
2018-10-12T22:25:23.227Z,100.00
2018-10-12T22:27:52.254Z,100.00
2018-10-12T22:30:21.190Z,100.00
2018-10-12T22:32:50.120Z,100.00
2018-10-12T22:35:19.126Z,100.00
2018-10-12T22:37:48.059Z,100.00
2018-10-12T22:40:17.012Z,100.00
2018-10-12T22:42:45.963Z,100.00
2018-10-12T22:45:14.966Z,100.00
2018-10-12T22:47:43.896Z,100.00
2018-10-12T22:50:12.836Z,100.00
2018-10-12T22:52:41.799Z,100.00
2018-10-12T22:55:10.749Z,100.00
2018-10-12T22:57:39.781Z,100.00
2018-10-12T23:00:09.001Z,100.00
2018-10-12T23:02:38.002Z,100.00
2018-10-12T23:05:07.307Z,100.00
2018-10-12T23:07:36.558Z,100.00
2018-10-12T23:10:05.610Z,100.00
2018-10-12T23:12:34.561Z,100.00
2018-10-12T23:15:03.521Z,100.00
2018-10-12T23:17:32.462Z,100.00
2018-10-12T23:20:01.475Z,100.00
2018-10-12T23:22:30.410Z,100.00
2018-10-12T23:24:59.347Z,100.00
2018-10-12T23:27:28.299Z,100.00
2018-10-12T23:29:57.242Z,100.00
2018-10-12T23:32:26.244Z,100.00
2018-10-12T23:34:55.184Z,100.00
2018-10-12T23:37:24.122Z,100.00
2018-10-12T23:39:53.066Z,100.00
2018-10-12T23:42:22.000Z,100.00
2018-10-12T23:44:50.951Z,100.00
2018-10-12T23:47:19.918Z,100.00
2018-10-12T23:49:48.873Z,100.00
2018-10-12T23:52:17.919Z,100.00
2018-10-12T23:54:47.118Z,100.00
2018-10-12T23:57:16.214Z,100.00
2018-10-12T23:59:45.146Z,100.00
